createdAt,value
2023-04-19T00:02:02.481Z,76.30
2023-04-19T00:04:30.294Z,76.26
2023-04-19T00:06:58.539Z,76.45
2023-04-19T00:09:25.239Z,76.31
2023-04-19T00:11:52.854Z,76.17
2023-04-19T00:14:19.454Z,76.27
2023-04-19T00:16:46.160Z,76.40
2023-04-19T00:19:12.797Z,76.39
2023-04-19T00:21:39.435Z,76.23
2023-04-19T00:24:06.419Z,76.46
2023-04-19T00:26:33.088Z,76.44
2023-04-19T00:28:59.728Z,76.39
2023-04-19T00:31:26.498Z,76.34
2023-04-19T00:33:53.232Z,76.40
2023-04-19T00:36:20.956Z,76.32
2023-04-19T00:38:47.592Z,76.29
2023-04-19T00:41:14.309Z,76.32
2023-04-19T00:43:41.037Z,76.47
2023-04-19T00:46:07.784Z,76.25
2023-04-19T00:48:36.403Z,76.20
2023-04-19T00:51:04.063Z,76.23
2023-04-19T00:53:31.364Z,76.23
2023-04-19T00:56:02.312Z,76.27
2023-04-19T00:58:31.564Z,76.20
2023-04-19T01:00:58.677Z,76.30
2023-04-19T01:03:27.520Z,76.09
2023-04-19T01:05:54.436Z,76.11
2023-04-19T01:08:21.044Z,75.99
2023-04-19T01:10:47.656Z,75.99
2023-04-19T01:13:14.227Z,75.96
2023-04-19T01:15:40.879Z,75.88
2023-04-19T01:18:07.724Z,75.69
2023-04-19T01:20:34.553Z,75.67
2023-04-19T01:23:01.443Z,75.74
2023-04-19T01:25:28.104Z,75.68
2023-04-19T01:27:54.744Z,75.71
2023-04-19T01:30:21.496Z,75.64
2023-04-19T01:32:48.145Z,75.71
2023-04-19T01:35:14.836Z,75.76
2023-04-19T01:37:41.486Z,75.71
2023-04-19T01:40:08.983Z,75.68
2023-04-19T01:42:35.626Z,75.76
2023-04-19T01:45:02.241Z,75.92
2023-04-19T01:47:29.178Z,76.02
2023-04-19T01:49:55.934Z,76.23
2023-04-19T01:52:22.547Z,76.25
2023-04-19T01:54:49.212Z,76.26
2023-04-19T01:57:16.678Z,76.17
2023-04-19T01:59:43.359Z,76.36
2023-04-19T02:02:10.172Z,76.56
2023-04-19T02:04:37.517Z,76.74
2023-04-19T02:07:06.081Z,76.81
2023-04-19T02:09:36.399Z,76.73
2023-04-19T02:12:03.660Z,77.00
2023-04-19T02:14:30.709Z,77.18
2023-04-19T02:16:57.718Z,77.36
2023-04-19T02:19:24.633Z,77.24
2023-04-19T02:21:51.844Z,77.38
2023-04-19T02:24:18.446Z,77.29
2023-04-19T02:26:45.045Z,77.63
2023-04-19T02:29:11.682Z,77.68
2023-04-19T02:31:38.331Z,77.67
2023-04-19T02:34:04.981Z,77.58
2023-04-19T02:36:32.112Z,77.59
2023-04-19T02:38:59.394Z,77.67
2023-04-19T02:41:26.059Z,77.75
2023-04-19T02:43:52.660Z,77.76
2023-04-19T02:46:19.327Z,77.64
2023-04-19T02:48:46.418Z,77.87
2023-04-19T02:51:17.763Z,77.75
2023-04-19T02:53:44.497Z,77.75
2023-04-19T02:56:11.124Z,77.56
2023-04-19T02:58:37.767Z,77.52
2023-04-19T03:01:04.616Z,77.43
2023-04-19T03:03:31.730Z,77.53
2023-04-19T03:05:58.517Z,77.38
2023-04-19T03:08:25.202Z,77.50
2023-04-19T03:10:51.830Z,77.37
2023-04-19T03:13:18.550Z,77.73
2023-04-19T03:15:45.159Z,77.87
2023-04-19T03:18:11.754Z,77.78
2023-04-19T03:20:38.404Z,77.66
2023-04-19T03:23:05.032Z,77.89
2023-04-19T03:25:33.238Z,77.95
2023-04-19T03:27:59.907Z,77.83
2023-04-19T03:30:26.603Z,77.89
2023-04-19T03:32:53.567Z,77.99
2023-04-19T03:35:21.179Z,77.97
2023-04-19T03:37:47.761Z,77.97
2023-04-19T03:40:14.420Z,78.14
2023-04-19T03:42:41.036Z,78.21
2023-04-19T03:45:08.114Z,78.19
2023-04-19T03:47:34.749Z,78.20
2023-04-19T03:50:01.389Z,78.35
2023-04-19T03:52:28.002Z,78.44
2023-04-19T03:54:54.665Z,78.41
2023-04-19T03:57:22.203Z,78.45
2023-04-19T03:59:48.870Z,78.56
2023-04-19T04:02:15.798Z,78.78
2023-04-19T04:04:42.728Z,78.81
2023-04-19T04:07:09.669Z,78.94
2023-04-19T04:09:36.331Z,79.05
2023-04-19T04:12:03.065Z,79.95
2023-04-19T04:14:29.703Z,79.74
2023-04-19T04:16:56.309Z,79.85
2023-04-19T04:19:22.946Z,79.91
2023-04-19T04:21:49.691Z,80.28
2023-04-19T04:24:18.021Z,80.37
2023-04-19T04:26:45.966Z,80.72
2023-04-19T04:29:13.520Z,80.60
2023-04-19T04:31:40.291Z,81.07
2023-04-19T04:34:09.164Z,80.65
2023-04-19T04:36:39.050Z,81.20
2023-04-19T04:39:06.450Z,81.12
2023-04-19T04:41:33.162Z,81.09
2023-04-19T04:44:12.086Z,81.04
2023-04-19T04:46:39.051Z,81.40
2023-04-19T04:49:06.578Z,81.36
2023-04-19T04:51:33.340Z,81.28
2023-04-19T04:53:59.976Z,81.29
2023-04-19T04:56:27.052Z,81.29
2023-04-19T04:58:53.947Z,81.27
2023-04-19T05:01:22.137Z,81.19
2023-04-19T05:03:48.763Z,81.43
2023-04-19T05:06:15.539Z,81.33
2023-04-19T05:08:42.378Z,81.28
2023-04-19T05:11:09.119Z,81.31
2023-04-19T05:13:35.964Z,81.40
2023-04-19T05:16:02.647Z,81.33
2023-04-19T05:18:29.280Z,81.29
2023-04-19T05:20:57.419Z,81.56
2023-04-19T05:23:24.106Z,81.54
2023-04-19T05:25:51.188Z,81.34
2023-04-19T05:28:17.947Z,81.35
2023-04-19T05:30:44.725Z,81.24
2023-04-19T05:33:11.399Z,81.04
2023-04-19T05:35:38.090Z,81.29
2023-04-19T05:38:04.785Z,81.14
2023-04-19T05:40:31.603Z,81.35
2023-04-19T05:42:58.222Z,81.12
2023-04-19T05:45:26.236Z,81.17
2023-04-19T05:47:52.881Z,81.09
2023-04-19T05:50:21.104Z,81.03
2023-04-19T05:52:47.919Z,80.89
2023-04-19T05:55:14.620Z,80.89
2023-04-19T05:57:41.504Z,80.61
2023-04-19T06:00:11.238Z,80.95
2023-04-19T06:02:38.157Z,80.90
2023-04-19T06:05:09.881Z,80.93
2023-04-19T06:07:40.535Z,80.92
2023-04-19T06:10:14.016Z,80.79
2023-04-19T06:12:40.638Z,80.91
2023-04-19T06:15:07.784Z,80.89
2023-04-19T06:17:34.439Z,80.84
2023-04-19T06:20:01.185Z,80.87
2023-04-19T06:22:27.918Z,80.91
2023-04-19T06:24:54.549Z,80.87
2023-04-19T06:27:21.352Z,80.83
2023-04-19T06:29:49.845Z,80.63
2023-04-19T06:32:17.796Z,80.72
2023-04-19T06:34:44.501Z,80.36
2023-04-19T06:37:12.484Z,80.23
2023-04-19T06:39:39.106Z,80.27
2023-04-19T06:42:07.102Z,80.27
2023-04-19T06:44:33.674Z,79.96
2023-04-19T06:47:00.844Z,80.04
2023-04-19T06:49:27.503Z,80.05
2023-04-19T06:51:54.378Z,80.01
2023-04-19T06:54:21.268Z,79.85
2023-04-19T06:56:49.987Z,79.73
2023-04-19T06:59:21.020Z,79.78
2023-04-19T07:01:48.286Z,79.65
2023-04-19T07:04:16.043Z,79.59
2023-04-19T07:06:42.987Z,79.63
2023-04-19T07:09:09.574Z,79.62
2023-04-19T07:11:36.306Z,79.56
2023-04-19T07:14:03.137Z,79.43
2023-04-19T07:16:30.239Z,79.40
2023-04-19T07:18:57.923Z,79.39
2023-04-19T07:21:28.778Z,79.41
2023-04-19T07:23:55.528Z,79.41
2023-04-19T07:26:22.241Z,79.33
2023-04-19T07:28:52.961Z,79.43
2023-04-19T07:31:19.735Z,79.38
2023-04-19T07:33:46.507Z,79.54
2023-04-19T07:36:13.237Z,79.47
2023-04-19T07:38:40.325Z,79.36
2023-04-19T07:41:06.949Z,79.36
2023-04-19T07:43:33.691Z,79.50
2023-04-19T07:46:00.518Z,79.42
2023-04-19T07:48:27.273Z,79.57
2023-04-19T07:50:54.138Z,79.50
2023-04-19T07:53:20.784Z,79.29
2023-04-19T07:55:47.471Z,79.54
2023-04-19T07:58:14.145Z,79.36
2023-04-19T08:00:40.806Z,79.28
2023-04-19T08:03:09.033Z,79.44
2023-04-19T08:05:36.204Z,79.48
2023-04-19T08:08:02.949Z,79.37
2023-04-19T08:10:30.726Z,79.07
2023-04-19T08:13:04.985Z,78.99
2023-04-19T08:16:05.207Z,79.13
2023-04-19T08:18:21.411Z,79.15
2023-04-19T08:20:48.259Z,78.99
2023-04-19T08:23:22.683Z,79.23
2023-04-19T08:25:53.612Z,78.55
2023-04-19T08:28:20.378Z,78.48
2023-04-19T08:30:47.131Z,78.53
2023-04-19T08:33:13.987Z,78.56
2023-04-19T08:35:41.971Z,78.47
2023-04-19T08:38:09.866Z,78.52
2023-04-19T08:40:41.769Z,78.51
2023-04-19T08:43:08.508Z,78.58
2023-04-19T08:45:36.830Z,78.88
2023-04-19T08:48:05.095Z,78.61
2023-04-19T08:50:38.780Z,78.76
2023-04-19T08:53:24.978Z,78.87
2023-04-19T08:58:51.986Z,78.92
2023-04-19T09:01:33.938Z,78.82
2023-04-19T09:04:21.649Z,78.91
2023-04-19T09:06:52.776Z,78.93
2023-04-19T09:11:49.677Z,78.84
2023-04-19T09:14:18.201Z,78.91
2023-04-19T09:16:45.325Z,78.90
2023-04-19T09:19:23.393Z,79.00
2023-04-19T09:21:53.047Z,78.91
2023-04-19T09:24:19.746Z,79.00
2023-04-19T09:26:55.106Z,79.21
2023-04-19T09:29:21.830Z,79.14
2023-04-19T09:31:58.948Z,79.10
2023-04-19T09:34:25.851Z,79.03
2023-04-19T09:37:01.030Z,79.16
2023-04-19T09:39:38.270Z,79.21
2023-04-19T09:42:05.030Z,79.21
2023-04-19T09:45:12.649Z,79.13
2023-04-19T09:47:24.655Z,79.19
2023-04-19T09:50:21.748Z,79.24
2023-04-19T09:52:50.295Z,79.36
2023-04-19T09:57:48.950Z,79.25
2023-04-19T10:00:16.868Z,79.39
2023-04-19T10:02:45.319Z,79.40
2023-04-19T10:05:20.313Z,79.52
2023-04-19T10:07:49.681Z,79.54
2023-04-19T10:10:22.476Z,79.73
2023-04-19T10:15:26.827Z,79.81
2023-04-19T10:17:56.731Z,79.69
2023-04-19T10:20:30.695Z,79.67
2023-04-19T10:22:57.474Z,79.70
2023-04-19T10:25:30.805Z,79.83
2023-04-19T10:27:58.097Z,79.70
2023-04-19T10:30:28.362Z,79.56
2023-04-19T10:32:56.984Z,79.45
2023-04-19T10:35:25.294Z,79.58
2023-04-19T10:38:07.235Z,79.51
2023-04-19T10:40:52.493Z,79.01
2023-04-19T10:43:20.247Z,78.88
2023-04-19T10:45:47.856Z,78.70
2023-04-19T10:48:26.597Z,78.25
2023-04-19T10:51:00.305Z,78.61
2023-04-19T10:53:46.606Z,78.58
2023-04-19T10:56:14.039Z,78.49
2023-04-19T10:59:02.445Z,78.13
2023-04-19T11:01:40.028Z,78.53
2023-04-19T11:04:08.528Z,78.31
2023-04-19T11:06:37.213Z,78.36
2023-04-19T11:09:07.245Z,78.36
2023-04-19T11:11:35.884Z,78.27
2023-04-19T11:14:04.352Z,78.04
2023-04-19T11:16:45.158Z,78.15
2023-04-19T11:19:16.932Z,78.28
2023-04-19T11:21:48.787Z,78.23
2023-04-19T11:24:18.676Z,78.31
2023-04-19T11:26:47.089Z,78.71
2023-04-19T11:29:14.379Z,78.67
2023-04-19T11:31:45.283Z,78.52
2023-04-19T11:34:12.510Z,78.27
2023-04-19T11:37:09.729Z,78.32
2023-04-19T11:39:45.734Z,78.05
2023-04-19T11:42:22.033Z,78.15
2023-04-19T11:44:52.615Z,77.87
2023-04-19T11:47:23.081Z,77.57
2023-04-19T11:49:49.882Z,77.58
2023-04-19T11:52:24.812Z,77.62
2023-04-19T11:54:54.954Z,77.43
2023-04-19T11:57:31.391Z,77.04
2023-04-19T12:00:05.630Z,76.72
2023-04-19T12:02:38.200Z,77.03
2023-04-19T12:05:16.387Z,77.13
2023-04-19T12:08:06.738Z,76.79
2023-04-19T12:10:34.177Z,76.85
2023-04-19T12:13:00.983Z,76.86
2023-04-19T12:15:44.519Z,76.80
2023-04-19T12:18:11.415Z,76.09
2023-04-19T12:20:43.834Z,75.39
2023-04-19T12:23:16.405Z,75.79
2023-04-19T12:25:47.645Z,76.16
2023-04-19T12:28:15.526Z,75.77
2023-04-19T12:30:42.616Z,75.86
2023-04-19T12:33:09.743Z,76.08
2023-04-19T12:35:39.377Z,75.83
2023-04-19T12:38:06.470Z,75.82
2023-04-19T12:40:33.541Z,75.67
2023-04-19T12:43:00.317Z,75.64
2023-04-19T12:45:27.350Z,75.43
2023-04-19T12:47:53.944Z,75.06
2023-04-19T12:50:20.894Z,74.72
2023-04-19T12:52:48.068Z,73.83
2023-04-19T12:55:14.822Z,73.53
2023-04-19T12:57:42.547Z,73.42
2023-04-19T13:00:11.097Z,73.74
2023-04-19T13:02:38.532Z,73.20
2023-04-19T13:05:06.392Z,73.11
2023-04-19T13:07:33.240Z,73.44
2023-04-19T13:10:00.106Z,73.32
2023-04-19T13:12:27.958Z,72.77
2023-04-19T13:14:54.824Z,72.52
2023-04-19T13:17:21.591Z,72.95
2023-04-19T13:19:48.626Z,73.18
2023-04-19T13:22:15.667Z,73.11
2023-04-19T13:24:42.370Z,73.01
2023-04-19T13:27:09.461Z,72.93
2023-04-19T13:29:36.733Z,72.73
2023-04-19T13:32:03.687Z,72.62
2023-04-19T13:34:30.919Z,72.45
2023-04-19T13:36:58.341Z,72.16
2023-04-19T13:39:25.276Z,70.70
2023-04-19T13:41:51.980Z,70.97
2023-04-19T13:44:18.838Z,70.34
2023-04-19T13:46:46.078Z,70.09
2023-04-19T13:49:12.715Z,70.30
2023-04-19T13:51:49.440Z,70.41
2023-04-19T13:54:18.286Z,70.17
2023-04-19T13:56:45.544Z,69.92
2023-04-19T13:59:12.206Z,70.09
2023-04-19T14:01:39.130Z,69.71
2023-04-19T14:04:06.099Z,69.25
2023-04-19T14:06:33.087Z,69.27
2023-04-19T14:08:59.808Z,69.09
2023-04-19T14:11:26.547Z,69.52
2023-04-19T14:13:54.037Z,68.75
2023-04-19T14:16:21.176Z,68.87
2023-04-19T14:18:47.976Z,69.08
2023-04-19T14:21:14.666Z,69.33
2023-04-19T14:23:41.292Z,69.43
2023-04-19T14:26:07.958Z,69.62
2023-04-19T14:28:35.915Z,69.50
2023-04-19T14:31:15.401Z,69.65
2023-04-19T14:33:42.220Z,69.67
2023-04-19T14:36:09.182Z,69.89
2023-04-19T14:38:36.252Z,70.25
2023-04-19T14:41:05.418Z,70.34
2023-04-19T14:43:32.987Z,70.18
2023-04-19T14:45:59.862Z,70.40
2023-04-19T14:48:26.565Z,71.00
2023-04-19T14:50:59.429Z,70.65
2023-04-19T14:53:26.043Z,70.36
2023-04-19T14:55:52.685Z,70.12
2023-04-19T14:58:24.128Z,69.93
2023-04-19T15:00:50.948Z,69.79
2023-04-19T15:03:18.359Z,70.30
2023-04-19T15:06:07.572Z,70.89
2023-04-19T15:08:34.487Z,71.03
2023-04-19T15:11:01.229Z,70.96
2023-04-19T15:13:29.821Z,71.54
2023-04-19T15:15:57.407Z,71.32
2023-04-19T15:18:24.184Z,71.60
2023-04-19T15:20:51.000Z,71.35
2023-04-19T15:23:17.664Z,71.30
2023-04-19T15:25:44.736Z,71.11
2023-04-19T15:28:11.396Z,71.10
2023-04-19T15:30:38.005Z,71.28
2023-04-19T15:33:04.705Z,71.08
2023-04-19T15:35:32.177Z,70.96
2023-04-19T15:37:58.781Z,71.04
2023-04-19T15:40:25.769Z,71.04
2023-04-19T15:42:52.502Z,71.04
2023-04-19T15:45:19.391Z,70.96
2023-04-19T15:47:46.171Z,71.09
2023-04-19T15:50:13.850Z,71.54
2023-04-19T15:52:41.233Z,71.48
2023-04-19T15:55:08.632Z,71.76
2023-04-19T15:57:35.391Z,71.63
2023-04-19T16:00:02.027Z,71.87
2023-04-19T16:02:29.713Z,71.57
2023-04-19T16:04:56.603Z,71.62
2023-04-19T16:07:23.385Z,71.55
2023-04-19T16:09:50.179Z,71.59
2023-04-19T16:12:16.872Z,71.87
2023-04-19T16:14:43.530Z,71.40
2023-04-19T16:17:10.226Z,71.31
2023-04-19T16:19:36.856Z,71.22
2023-04-19T16:22:05.705Z,71.36
2023-04-19T16:24:32.448Z,71.49
2023-04-19T16:26:59.338Z,71.64
2023-04-19T16:29:26.896Z,71.66
2023-04-19T16:31:53.830Z,71.69
2023-04-19T16:34:21.290Z,71.73
2023-04-19T16:36:47.995Z,72.03
2023-04-19T16:39:14.902Z,72.10
2023-04-19T16:41:41.746Z,72.07
2023-04-19T16:44:08.510Z,72.11
2023-04-19T16:46:35.571Z,72.42
2023-04-19T16:49:02.450Z,72.56
2023-04-19T16:51:29.143Z,72.76
2023-04-19T16:53:56.108Z,72.90
2023-04-19T16:56:22.869Z,73.11
2023-04-19T16:58:50.215Z,73.28
2023-04-19T17:01:17.176Z,73.36
2023-04-19T17:03:45.205Z,73.58
2023-04-19T17:06:12.048Z,73.36
2023-04-19T17:08:39.962Z,73.48
2023-04-19T17:11:06.866Z,73.56
2023-04-19T17:13:33.595Z,73.58
2023-04-19T17:16:00.385Z,73.35
2023-04-19T17:18:27.015Z,73.29
2023-04-19T17:20:53.688Z,73.24
2023-04-19T17:23:21.277Z,73.25
2023-04-19T17:25:48.080Z,73.53
2023-04-19T17:28:14.683Z,73.68
2023-04-19T17:30:41.357Z,73.88
2023-04-19T17:33:08.682Z,73.70
2023-04-19T17:35:35.394Z,73.98
2023-04-19T17:38:01.982Z,73.99
2023-04-19T17:40:29.549Z,73.92
2023-04-19T17:42:56.530Z,73.96
2023-04-19T17:45:25.033Z,74.07
2023-04-19T17:47:55.300Z,74.20
2023-04-19T17:50:22.852Z,74.12
2023-04-19T17:52:49.589Z,74.08
2023-04-19T17:55:16.254Z,73.95
2023-04-19T17:57:46.063Z,73.94
2023-04-19T18:00:13.589Z,73.47
2023-04-19T18:02:40.824Z,73.47
2023-04-19T18:05:10.297Z,73.17
2023-04-19T18:07:36.965Z,73.19
2023-04-19T18:10:04.279Z,73.07
2023-04-19T18:12:31.045Z,72.70
2023-04-19T18:14:57.671Z,72.95
2023-04-19T18:17:24.563Z,73.20
2023-04-19T18:19:51.548Z,73.60
2023-04-19T18:22:18.234Z,73.33
2023-04-19T18:24:46.929Z,73.31
2023-04-19T18:27:14.156Z,73.58
2023-04-19T18:29:40.991Z,73.65
2023-04-19T18:32:07.696Z,73.71
2023-04-19T18:34:35.985Z,73.74
2023-04-19T18:37:04.980Z,73.72
2023-04-19T18:39:31.609Z,73.75
2023-04-19T18:41:58.464Z,73.83
2023-04-19T18:44:49.625Z,73.74
2023-04-19T18:47:12.838Z,73.83
2023-04-19T18:49:39.859Z,73.76
2023-04-19T18:52:07.154Z,73.72
2023-04-19T18:54:33.944Z,73.83
2023-04-19T18:59:31.045Z,73.89
2023-04-19T19:01:57.872Z,74.25
2023-04-19T19:06:54.640Z,73.99
2023-04-19T19:09:22.865Z,73.86
2023-04-19T19:11:56.436Z,73.33
2023-04-19T19:14:23.721Z,73.03
2023-04-19T19:16:52.403Z,72.68
2023-04-19T19:19:22.378Z,72.49
2023-04-19T19:21:49.591Z,72.47
2023-04-19T19:24:16.247Z,72.19
2023-04-19T19:26:42.869Z,71.89
2023-04-19T19:29:10.610Z,71.72
2023-04-19T19:31:37.254Z,71.51
2023-04-19T19:34:22.668Z,71.43
2023-04-19T19:36:53.596Z,71.47
2023-04-19T19:39:21.681Z,71.04
2023-04-19T19:44:17.962Z,71.20
2023-04-19T19:46:44.782Z,70.55
2023-04-19T19:49:12.954Z,70.52
2023-04-19T19:51:57.813Z,70.32
2023-04-19T19:54:25.654Z,70.22
2023-04-19T19:57:35.588Z,69.91
2023-04-19T19:59:40.465Z,69.95
2023-04-19T20:02:08.573Z,69.46
2023-04-19T20:04:36.176Z,69.39
2023-04-19T20:09:34.424Z,69.00
2023-04-19T20:12:02.094Z,68.73
2023-04-19T20:14:28.727Z,68.46
2023-04-19T20:16:55.636Z,68.60
2023-04-19T20:19:22.540Z,68.38
2023-04-19T20:21:49.450Z,68.28
2023-04-19T20:24:16.090Z,68.07
2023-04-19T20:26:42.903Z,68.10
2023-04-19T20:29:10.758Z,67.98
2023-04-19T20:31:37.397Z,68.23
2023-04-19T20:34:04.374Z,68.07
2023-04-19T20:36:31.874Z,67.97
2023-04-19T20:38:59.064Z,68.09
2023-04-19T20:41:25.716Z,67.98
2023-04-19T20:43:52.483Z,67.97
2023-04-19T20:46:19.223Z,67.75
2023-04-19T20:48:46.021Z,67.79
2023-04-19T20:51:12.900Z,67.76
2023-04-19T20:53:39.774Z,67.66
2023-04-19T20:56:06.626Z,67.64
2023-04-19T20:58:33.820Z,67.68
2023-04-19T21:01:00.773Z,67.75
2023-04-19T21:03:28.071Z,67.83
2023-04-19T21:05:54.860Z,67.66
2023-04-19T21:08:23.484Z,67.72
2023-04-19T21:10:50.326Z,67.57
2023-04-19T21:13:17.045Z,67.55
2023-04-19T21:15:43.715Z,67.58
2023-04-19T21:18:11.669Z,67.55
2023-04-19T21:20:39.429Z,67.83
2023-04-19T21:23:06.308Z,67.83
2023-04-19T21:25:33.052Z,67.94
2023-04-19T21:27:59.743Z,68.12
2023-04-19T21:30:26.358Z,68.17
2023-04-19T21:32:53.113Z,68.12
2023-04-19T21:35:20.008Z,68.14
2023-04-19T21:37:48.280Z,68.22
2023-04-19T21:40:14.906Z,68.07
2023-04-19T21:42:41.646Z,68.20
2023-04-19T21:45:09.049Z,68.24
2023-04-19T21:47:35.885Z,68.18
2023-04-19T21:50:02.533Z,68.33
2023-04-19T21:52:29.253Z,68.16
2023-04-19T21:54:56.498Z,68.41
2023-04-19T21:57:24.888Z,68.32
2023-04-19T21:59:52.023Z,68.34
2023-04-19T22:02:19.577Z,68.42
2023-04-19T22:04:46.359Z,68.58
2023-04-19T22:07:13.117Z,68.58
2023-04-19T22:09:39.982Z,68.73
2023-04-19T22:12:07.246Z,68.73
2023-04-19T22:14:33.910Z,68.77
2023-04-19T22:17:02.509Z,69.16
2023-04-19T22:19:29.578Z,68.58
2023-04-19T22:21:56.400Z,68.65
2023-04-19T22:24:23.093Z,68.65
2023-04-19T22:26:51.075Z,68.38
2023-04-19T22:29:18.097Z,68.32
2023-04-19T22:31:44.997Z,68.45
2023-04-19T22:34:11.932Z,68.47
2023-04-19T22:36:38.884Z,68.58
2023-04-19T22:39:05.608Z,68.36
2023-04-19T22:41:33.332Z,68.21
2023-04-19T22:44:00.489Z,68.05
2023-04-19T22:46:27.334Z,67.95
2023-04-19T22:48:56.105Z,67.82
2023-04-19T22:51:24.370Z,67.84
2023-04-19T22:53:51.583Z,67.81
2023-04-19T22:56:18.213Z,67.82
2023-04-19T22:58:46.069Z,67.80
2023-04-19T23:01:12.922Z,67.74
2023-04-19T23:03:39.565Z,68.03
2023-04-19T23:06:08.041Z,67.75
2023-04-19T23:08:35.187Z,67.72
2023-04-19T23:11:01.824Z,67.77
2023-04-19T23:13:28.569Z,67.63
2023-04-19T23:15:55.231Z,67.48
2023-04-19T23:18:22.049Z,67.22
2023-04-19T23:20:48.736Z,67.04
2023-04-19T23:23:15.512Z,66.85
2023-04-19T23:25:42.391Z,66.85
2023-04-19T23:28:11.072Z,66.78
2023-04-19T23:30:39.118Z,66.85
2023-04-19T23:33:06.043Z,66.81
2023-04-19T23:35:32.841Z,66.73
2023-04-19T23:37:59.467Z,66.53
2023-04-19T23:40:26.337Z,66.60
2023-04-19T23:42:53.006Z,66.38
2023-04-19T23:45:19.726Z,66.39
2023-04-19T23:47:46.408Z,66.42
2023-04-19T23:50:13.144Z,66.65
2023-04-19T23:52:41.253Z,66.70
2023-04-19T23:55:08.269Z,67.02
2023-04-19T23:57:35.773Z,66.89
